Time;durP1;ratioP1;P1;durP2;ratioP2;P2;SDS_P1;SDS_P2;PMS_P1;PMS_P2;Temp;Humidity;BMP_temperature;BMP_pressure;BME280_temperature;BME280_humidity;BME280_pressure;Samples;Min_cycle;Max_cycle;Signal;HPM_P1;HPM_P2
2023/05/08 00:02:12;;;;;;;28.83;18.65;;;;;;;13.75;100.00;101845.66;4857932;29;20029;-77
2023/05/08 00:04:37;;;;;;;28.52;18.85;;;;;;;13.77;100.00;101852.66;4850143;29;20032;-77
2023/05/08 00:07:02;;;;;;;28.00;19.95;;;;;;;13.80;100.00;101857.00;4857352;29;20044;-77
2023/05/08 00:09:28;;;;;;;27.10;18.77;;;;;;;13.76;100.00;101859.06;4853509;29;20038;-77
2023/05/08 00:11:53;;;;;;;26.77;18.08;;;;;;;13.75;100.00;101870.84;4847538;29;20138;-77
2023/05/08 00:14:18;;;;;;;25.88;16.73;;;;;;;13.75;100.00;101865.44;4853539;29;20021;-77
2023/05/08 00:16:44;;;;;;;27.20;16.92;;;;;;;13.73;100.00;101858.41;4856013;29;20026;-77
2023/05/08 00:19:09;;;;;;;27.63;18.17;;;;;;;13.75;100.00;101862.72;4849295;29;20101;-77
2023/05/08 00:21:34;;;;;;;25.73;17.92;;;;;;;13.75;100.00;101851.94;4856155;29;20132;-77
2023/05/08 00:24:00;;;;;;;29.77;16.58;;;;;;;13.74;100.00;101852.03;4857950;29;20439;-77
2023/05/08 00:26:25;;;;;;;27.33;18.92;;;;;;;13.72;100.00;101846.75;4855589;29;20466;-77
2023/05/08 00:28:50;;;;;;;28.52;18.63;;;;;;;13.69;100.00;101852.38;4856789;29;20076;-77
2023/05/08 00:31:16;;;;;;;27.35;18.60;;;;;;;13.72;100.00;101853.97;4857470;29;20077;-77
2023/05/08 00:33:41;;;;;;;30.50;17.85;;;;;;;13.69;100.00;101856.88;4848037;29;20482;-77
2023/05/08 00:36:06;;;;;;;27.33;18.38;;;;;;;13.68;100.00;101858.72;4851788;29;20029;-77
2023/05/08 00:38:33;;;;;;;28.90;18.58;;;;;;;13.68;100.00;101863.28;4856925;29;20100;-77
2023/05/08 00:40:59;;;;;;;27.73;18.25;;;;;;;13.66;100.00;101851.69;4857929;29;20021;-77
2023/05/08 00:43:27;;;;;;;25.77;17.25;;;;;;;13.66;100.00;101849.88;4857135;29;20033;-77
2023/05/08 00:45:54;;;;;;;26.60;18.88;;;;;;;13.63;100.00;101858.16;4853966;29;20036;-77
2023/05/08 00:48:22;;;;;;;26.63;17.25;;;;;;;13.62;100.00;101860.03;4856499;29;20061;-77
2023/05/08 00:50:47;;;;;;;28.35;19.02;;;;;;;13.60;100.00;101845.78;4852632;29;20136;-77
2023/05/08 00:53:13;;;;;;;27.90;18.02;;;;;;;13.62;100.00;101848.38;4849157;29;20177;-77
2023/05/08 00:55:39;;;;;;;29.25;20.48;;;;;;;13.61;100.00;101843.94;4851812;29;20160;-77
2023/05/08 00:58:05;;;;;;;28.08;19.08;;;;;;;13.60;100.00;101840.38;4854981;29;20469;-77
2023/05/08 01:00:31;;;;;;;28.13;18.52;;;;;;;13.63;100.00;101839.25;4857678;29;20443;-75
2023/05/08 01:02:59;;;;;;;28.42;19.73;;;;;;;13.61;100.00;101836.66;4855174;29;20470;-75
2023/05/08 01:05:26;;;;;;;29.83;20.17;;;;;;;13.62;100.00;101838.41;4855935;29;20037;-75
2023/05/08 01:07:51;;;;;;;28.50;19.60;;;;;;;13.60;100.00;101840.38;4855381;29;20081;-74
2023/05/08 01:10:16;;;;;;;27.98;19.75;;;;;;;13.60;100.00;101843.06;4858082;29;20033;-74
2023/05/08 01:13:00;;;;;;;28.73;20.45;;;;;;;13.59;100.00;101844.03;4857138;29;20058;-74
2023/05/08 01:15:31;;;;;;;30.42;19.92;;;;;;;13.62;100.00;101848.38;4857042;29;20480;-74
2023/05/08 01:18:18;;;;;;;31.85;22.58;;;;;;;13.63;100.00;101845.56;4851960;29;20033;-74
2023/05/08 01:20:56;;;;;;;28.60;19.83;;;;;;;13.62;100.00;101845.66;4850656;29;20057;-74
2023/05/08 01:23:46;;;;;;;28.40;18.83;;;;;;;13.63;100.00;101837.44;4855051;29;20093;-74
2023/05/08 01:26:48;;;;;;;31.58;19.45;;;;;;;13.63;100.00;101834.75;4858739;29;20033;-74
2023/05/08 01:29:48;;;;;;;28.27;18.88;;;;;;;13.64;100.00;101841.00;4855297;29;20501;-74
2023/05/08 01:32:23;;;;;;;28.38;19.65;;;;;;;13.61;100.00;101835.81;4850081;29;20030;-74
2023/05/08 01:35:09;;;;;;;28.50;20.30;;;;;;;13.60;100.00;101845.78;4856380;29;20041;-74
2023/05/08 01:37:41;;;;;;;28.02;19.77;;;;;;;13.58;100.00;101849.53;4851170;29;20064;-75
2023/05/08 01:40:20;;;;;;;28.98;19.92;;;;;;;13.60;100.00;101844.88;4856530;29;20081;-74
2023/05/08 01:42:52;;;;;;;28.25;20.42;;;;;;;13.58;100.00;101845.00;4849028;29;20614;-74
2023/05/08 01:45:24;;;;;;;29.80;20.45;;;;;;;13.58;100.00;101842.28;4853925;29;20029;-74
2023/05/08 01:48:02;;;;;;;31.63;20.88;;;;;;;13.61;100.00;101831.28;4855674;29;20100;-75
2023/05/08 01:50:43;;;;;;;28.73;20.88;;;;;;;13.61;100.00;101846.63;4857502;29;20419;-74
2023/05/08 01:53:25;;;;;;;30.35;21.00;;;;;;;13.64;100.00;101841.84;4857998;29;20086;-74
2023/05/08 01:55:56;;;;;;;29.33;20.10;;;;;;;13.60;100.00;101837.66;4856163;29;20494;-74
2023/05/08 01:58:24;;;;;;;31.48;21.58;;;;;;;13.61;100.00;101844.78;4854794;29;20033;-74
2023/05/08 02:00:50;;;;;;;28.88;20.10;;;;;;;13.62;100.00;101841.13;4857221;29;20045;-74
2023/05/08 02:03:16;;;;;;;29.23;20.80;;;;;;;13.62;100.00;101848.38;4851801;29;20032;-74
2023/05/08 02:05:42;;;;;;;29.30;20.98;;;;;;;13.62;100.00;101849.22;4857706;29;20029;-74
2023/05/08 02:08:11;;;;;;;29.77;20.65;;;;;;;13.60;100.00;101844.88;4857758;29;20037;-74
2023/05/08 02:10:38;;;;;;;31.20;21.55;;;;;;;13.59;100.00;101844.03;4850926;29;20034;-76
2023/05/08 02:13:05;;;;;;;30.85;20.58;;;;;;;13.60;100.00;101851.19;4856808;29;20043;-74
2023/05/08 02:15:34;;;;;;;31.92;20.20;;;;;;;13.57;100.00;101854.09;4855010;29;20026;-75
2023/05/08 02:18:02;;;;;;;29.63;20.17;;;;;;;13.58;100.00;101857.66;4857071;29;20105;-74
2023/05/08 02:20:30;;;;;;;26.80;18.33;;;;;;;13.56;100.00;101859.59;4857314;29;20041;-74
2023/05/08 02:22:56;;;;;;;30.15;20.27;;;;;;;13.56;100.00;101852.34;4857756;29;20059;-74
2023/05/08 02:25:22;;;;;;;28.67;21.30;;;;;;;13.55;100.00;101856.03;4856569;29;20095;-75
2023/05/08 02:27:52;;;;;;;29.83;21.75;;;;;;;13.56;100.00;101856.91;4850793;29;20044;-74
2023/05/08 02:30:18;;;;;;;30.08;21.30;;;;;;;13.57;100.00;101862.19;4857891;29;20022;-74
2023/05/08 02:32:46;;;;;;;29.58;20.20;;;;;;;13.56;100.00;101865.00;4857405;29;20147;-74
2023/05/08 02:35:14;;;;;;;32.00;22.15;;;;;;;13.55;100.00;101861.41;4851393;29;20530;-75
2023/05/08 02:37:43;;;;;;;30.10;22.83;;;;;;;13.55;100.00;101858.72;4859396;29;20132;-75
2023/05/08 02:40:10;;;;;;;28.63;20.15;;;;;;;13.56;100.00;101876.66;4861918;29;20021;-74
2023/05/08 02:42:36;;;;;;;32.28;19.98;;;;;;;13.53;100.00;101862.50;4854049;29;20054;-75
2023/05/08 02:45:02;;;;;;;29.17;19.20;;;;;;;13.53;100.00;101865.19;4859175;29;20120;-74
2023/05/08 02:47:49;;;;;;;30.73;21.10;;;;;;;13.51;100.00;101862.59;4861189;29;20033;-74
2023/05/08 02:50:25;;;;;;;29.95;21.83;;;;;;;13.50;100.00;101860.91;4832943;29;20049;-75
2023/05/08 02:52:58;;;;;;;29.88;20.10;;;;;;;13.49;100.00;101853.75;4857416;29;20037;-75
2023/05/08 02:55:52;;;;;;;29.45;19.40;;;;;;;13.49;100.00;101853.75;4859649;29;20036;-74
2023/05/08 02:58:33;;;;;;;29.38;21.13;;;;;;;13.52;100.00;101848.13;4858159;29;20215;-74
2023/05/08 03:01:06;;;;;;;28.40;19.88;;;;;;;13.51;100.00;101849.09;4861361;29;20089;-74
2023/05/08 03:03:36;;;;;;;31.40;22.25;;;;;;;13.49;100.00;101851.06;4860172;29;20109;-75
2023/05/08 03:06:07;;;;;;;27.92;19.15;;;;;;;13.46;100.00;101851.28;4858675;29;20022;-74
2023/05/08 03:08:34;;;;;;;30.08;20.80;;;;;;;13.44;100.00;101853.19;4857182;29;20112;-75
2023/05/08 03:11:06;;;;;;;29.10;19.92;;;;;;;13.44;100.00;101856.78;4860815;29;20040;-74
2023/05/08 03:13:36;;;;;;;30.48;20.77;;;;;;;13.44;100.00;101854.06;4855987;29;20229;-74
2023/05/08 03:16:03;;;;;;;29.00;20.73;;;;;;;13.45;100.00;101852.22;4858707;29;20041;-74
2023/05/08 03:18:40;;;;;;;27.98;19.20;;;;;;;13.43;100.00;101849.63;4859044;29;20410;-74
2023/05/08 03:21:08;;;;;;;29.40;19.38;;;;;;;13.41;100.00;101850.72;4850783;29;20037;-74
2023/05/08 03:23:37;;;;;;;29.30;19.40;;;;;;;13.39;100.00;101852.66;4857820;29;20109;-76
2023/05/08 03:26:03;;;;;;;28.70;19.85;;;;;;;13.41;100.00;101857.00;4857053;29;20032;-75
2023/05/08 03:28:30;;;;;;;29.60;19.98;;;;;;;13.38;100.00;101850.94;4855187;29;20442;-74
2023/05/08 03:30:56;;;;;;;26.88;18.05;;;;;;;13.34;100.00;101850.28;4858774;29;20036;-74
2023/05/08 03:33:23;;;;;;;27.63;19.13;;;;;;;13.30;100.00;101851.44;4856849;29;20375;-74
2023/05/08 03:35:49;;;;;;;27.55;18.42;;;;;;;13.27;100.00;101848.94;4859583;29;20033;-74
2023/05/08 03:38:16;;;;;;;29.30;19.48;;;;;;;13.25;100.00;101851.75;4858359;29;20037;-74
2023/05/08 03:40:41;;;;;;;27.40;18.27;;;;;;;13.24;100.00;101843.75;4853606;29;20030;-75
2023/05/08 03:43:08;;;;;;;30.30;21.00;;;;;;;13.26;100.00;101841.81;4859068;29;20040;-74
2023/05/08 03:45:36;;;;;;;30.95;21.98;;;;;;;13.23;100.00;101848.28;4856515;29;20064;-75
2023/05/08 03:48:03;;;;;;;30.40;19.95;;;;;;;13.20;100.00;101843.09;4857433;29;20026;-77
2023/05/08 03:50:30;;;;;;;29.77;20.42;;;;;;;13.16;100.00;101841.56;4858632;29;20146;-75
2023/05/08 03:52:57;;;;;;;30.35;20.77;;;;;;;13.14;100.00;101846.22;4860171;29;20136;-74
2023/05/08 03:55:23;;;;;;;28.13;19.05;;;;;;;13.12;100.00;101842.78;4857878;29;20128;-76
2023/05/08 03:57:57;;;;;;;27.63;19.52;;;;;;;13.10;100.00;101845.56;4854154;29;20145;-75
2023/05/08 04:00:30;;;;;;;29.33;19.75;;;;;;;13.11;100.00;101844.59;4851704;29;20033;-74
2023/05/08 04:03:08;;;;;;;27.48;18.42;;;;;;;13.10;100.00;101842.00;4859526;29;20046;-74
2023/05/08 04:05:40;;;;;;;28.27;18.55;;;;;;;13.10;100.00;101839.28;4851521;29;20482;-75
2023/05/08 04:08:15;;;;;;;29.42;20.48;;;;;;;13.12;100.00;101850.88;4858365;29;20056;-75
2023/05/08 04:10:53;;;;;;;30.17;21.08;;;;;;;13.13;100.00;101847.19;4859793;29;20036;-74
2023/05/08 04:13:24;;;;;;;31.73;22.00;;;;;;;13.15;100.00;101849.75;4852458;29;20510;-74
2023/05/08 04:16:20;;;;;;;31.30;21.38;;;;;;;13.18;100.00;101852.28;4859251;29;20510;-74
2023/05/08 04:18:48;;;;;;;29.73;20.58;;;;;;;13.15;100.00;101865.97;4846238;29;20367;-74
2023/05/08 04:21:18;;;;;;;30.88;20.00;;;;;;;13.16;100.00;101856.91;4858204;29;20551;-75
2023/05/08 04:23:46;;;;;;;30.08;20.55;;;;;;;13.17;100.00;101854.09;4855821;29;20034;-74
2023/05/08 04:26:13;;;;;;;29.67;20.75;;;;;;;13.19;100.00;101851.28;4857969;29;20543;-75
2023/05/08 04:28:39;;;;;;;30.17;20.33;;;;;;;13.21;100.00;101854.78;4853509;29;20033;-74
2023/05/08 04:31:06;;;;;;;28.55;19.08;;;;;;;13.21;100.00;101865.56;4856564;29;20045;-75
2023/05/08 04:33:33;;;;;;;30.95;20.05;;;;;;;13.21;100.00;101858.31;4854418;29;20059;-74
2023/05/08 04:36:01;;;;;;;30.65;19.95;;;;;;;13.23;100.00;101856.38;4850873;29;20117;-75
2023/05/08 04:38:26;;;;;;;30.63;19.15;;;;;;;13.25;100.00;101862.56;4849322;29;20025;-75
2023/05/08 04:40:52;;;;;;;28.98;19.67;;;;;;;13.29;100.00;101868.59;4854851;29;20520;-74
2023/05/08 04:43:17;;;;;;;28.52;20.38;;;;;;;13.29;100.00;101866.78;4851075;29;20033;-74
2023/05/08 04:45:42;;;;;;;31.00;19.90;;;;;;;13.31;100.00;101877.47;4858717;29;20029;-74
2023/05/08 04:48:07;;;;;;;29.75;20.77;;;;;;;13.33;100.00;101867.41;4856469;29;20195;-74
2023/05/08 04:50:33;;;;;;;32.03;21.15;;;;;;;13.37;100.00;101873.53;4858589;29;20061;-74
2023/05/08 04:52:58;;;;;;;30.17;21.20;;;;;;;13.36;100.00;101871.78;4859797;29;20115;-74
2023/05/08 04:55:23;;;;;;;29.23;20.17;;;;;;;13.38;100.00;101881.50;4857360;29;20042;-74
2023/05/08 04:57:49;;;;;;;30.52;22.27;;;;;;;13.39;100.00;101880.53;4852287;29;20467;-74
2023/05/08 05:00:14;;;;;;;30.63;21.90;;;;;;;13.43;100.00;101876.66;4851659;29;20101;-74
2023/05/08 05:02:40;;;;;;;29.65;20.77;;;;;;;13.45;100.00;101880.09;4840979;29;20033;-75
2023/05/08 05:05:06;;;;;;;30.30;20.65;;;;;;;13.48;100.00;101881.72;4850739;29;20044;-74
2023/05/08 05:07:31;;;;;;;33.22;21.98;;;;;;;13.49;100.00;101886.16;4850832;29;20048;-75
2023/05/08 05:09:59;;;;;;;32.92;24.05;;;;;;;13.52;100.00;101895.91;4859952;29;20482;-75
2023/05/08 05:12:25;;;;;;;35.03;24.52;;;;;;;13.52;100.00;101891.34;4858304;29;20041;-74
2023/05/08 05:14:50;;;;;;;32.13;23.65;;;;;;;13.56;100.00;101903.69;4854991;29;20033;-75
2023/05/08 05:17:15;;;;;;;34.65;25.58;;;;;;;13.58;100.00;101898.16;4855323;29;20112;-75
2023/05/08 05:19:41;;;;;;;31.48;22.48;;;;;;;13.60;100.00;101904.31;4857895;29;20097;-75
2023/05/08 05:22:07;;;;;;;34.33;23.42;;;;;;;13.62;100.00;101905.09;4856759;29;20117;-75
2023/05/08 05:24:34;;;;;;;31.23;22.60;;;;;;;13.64;100.00;101908.53;4858966;29;20502;-74
2023/05/08 05:27:00;;;;;;;33.13;23.10;;;;;;;13.64;100.00;101912.09;4854090;29;20083;-74
2023/05/08 05:29:25;;;;;;;31.02;22.38;;;;;;;13.68;100.00;101911.91;4856108;29;20195;-74
2023/05/08 05:31:50;;;;;;;33.90;24.90;;;;;;;13.69;100.00;101913.63;4853883;29;20025;-74
2023/05/08 05:34:16;;;;;;;33.72;23.55;;;;;;;13.70;100.00;101912.66;4855178;29;20061;-74
2023/05/08 05:36:41;;;;;;;34.80;24.38;;;;;;;13.73;100.00;101917.84;4857584;29;20040;-74
2023/05/08 05:39:06;;;;;;;37.05;25.05;;;;;;;13.77;100.00;101913.97;4852221;29;20029;-76
2023/05/08 05:41:33;;;;;;;35.67;26.55;;;;;;;13.77;100.00;101920.22;4854793;29;20033;-75
2023/05/08 05:43:58;;;;;;;35.60;25.58;;;;;;;13.82;100.00;101919.88;4858116;29;20033;-75
2023/05/08 05:46:29;;;;;;;36.67;26.15;;;;;;;13.83;100.00;101924.31;4855855;29;20032;-74
2023/05/08 05:48:55;;;;;;;38.13;28.38;;;;;;;13.85;100.00;101925.09;4855587;29;20466;-75
2023/05/08 05:51:20;;;;;;;40.47;29.83;;;;;;;13.87;100.00;101923.16;4855814;29;20060;-74
2023/05/08 05:53:45;;;;;;;42.35;29.20;;;;;;;13.91;100.00;101929.19;4856759;29;20072;-76
2023/05/08 05:56:11;;;;;;;38.90;29.42;;;;;;;13.93;100.00;101935.38;4854675;29;20132;-74
2023/05/08 05:58:36;;;;;;;38.25;28.77;;;;;;;13.96;100.00;101933.31;4856451;29;20086;-75
2023/05/08 06:01:01;;;;;;;40.63;29.63;;;;;;;13.99;100.00;101927.69;4858345;29;20022;-75
2023/05/08 06:03:27;;;;;;;42.83;29.15;;;;;;;14.04;100.00;101929.19;4858764;29;20034;-75
2023/05/08 06:05:52;;;;;;;39.85;29.65;;;;;;;14.08;100.00;101933.41;4858450;29;20029;-75
2023/05/08 06:08:18;;;;;;;44.22;32.35;;;;;;;14.08;100.00;101934.25;4857343;29;20108;-75
2023/05/08 06:10:43;;;;;;;43.15;33.50;;;;;;;14.11;100.00;101930.50;4857412;29;20036;-77
2023/05/08 06:13:08;;;;;;;42.22;31.25;;;;;;;14.12;100.00;101927.69;4856912;29;20061;-77
2023/05/08 06:15:34;;;;;;;42.08;31.13;;;;;;;14.10;100.00;101935.03;4861878;29;20037;-77
2023/05/08 06:17:59;;;;;;;42.25;31.98;;;;;;;14.12;100.00;101934.94;4854412;29;20033;-77
2023/05/08 06:20:25;;;;;;;39.80;31.15;;;;;;;14.13;100.00;101931.25;4868080;29;20175;-77
2023/05/08 06:22:50;;;;;;;39.67;30.40;;;;;;;14.15;100.00;101930.16;4856813;29;20615;-77
2023/05/08 06:25:16;;;;;;;41.30;30.65;;;;;;;14.17;100.00;101930.03;4858036;29;20104;-77
2023/05/08 06:27:42;;;;;;;44.17;32.08;;;;;;;14.19;100.00;101927.22;4853336;29;20029;-77
2023/05/08 06:30:09;;;;;;;46.25;32.50;;;;;;;14.21;100.00;101936.97;4860055;29;20033;-77
2023/05/08 06:32:35;;;;;;;45.72;34.72;;;;;;;14.26;100.00;101929.41;4862987;29;20101;-74
2023/05/08 06:35:00;;;;;;;45.17;34.03;;;;;;;14.30;100.00;101930.91;4855728;29;20037;-73
2023/05/08 06:37:25;;;;;;;45.65;34.45;;;;;;;14.35;100.00;101925.19;4856606;29;20036;-74
2023/05/08 06:39:51;;;;;;;44.33;35.45;;;;;;;14.39;100.00;101932.06;4848336;29;20043;-74
2023/05/08 06:42:16;;;;;;;49.97;38.17;;;;;;;14.43;100.00;101928.16;4857514;29;20033;-75
2023/05/08 06:44:41;;;;;;;47.17;34.85;;;;;;;14.49;100.00;101934.97;4857088;29;20040;-75
2023/05/08 06:47:07;;;;;;;49.38;35.92;;;;;;;14.52;100.00;101937.47;4853165;29;20098;-74
2023/05/08 06:49:35;;;;;;;47.25;37.53;;;;;;;14.54;100.00;101938.22;4859518;29;20064;-74
2023/05/08 06:52:01;;;;;;;48.50;36.03;;;;;;;14.57;100.00;101943.41;4860799;29;20022;-74
2023/05/08 06:54:26;;;;;;;47.22;36.83;;;;;;;14.58;100.00;101939.72;4858747;29;20348;-74
2023/05/08 06:56:53;;;;;;;48.88;38.22;;;;;;;14.62;100.00;101951.22;4860100;29;20150;-74
2023/05/08 06:59:18;;;;;;;47.25;36.63;;;;;;;14.63;100.00;101951.09;4855165;29;20037;-75
2023/05/08 07:01:44;;;;;;;50.80;39.63;;;;;;;14.65;100.00;101948.28;4860225;29;20045;-74
2023/05/08 07:04:09;;;;;;;48.13;38.15;;;;;;;14.63;100.00;101955.66;4856253;29;20025;-75
2023/05/08 07:06:34;;;;;;;49.25;38.83;;;;;;;14.61;100.00;101954.88;4860675;29;20070;-74
2023/05/08 07:08:59;;;;;;;48.83;38.17;;;;;;;14.61;100.00;101958.50;4858746;29;20037;-74
2023/05/08 07:11:25;;;;;;;51.60;40.70;;;;;;;14.64;100.00;101958.25;4860168;29;20033;-75
2023/05/08 07:13:50;;;;;;;50.92;38.30;;;;;;;14.63;100.00;101955.66;4855514;29;20025;-74
2023/05/08 07:16:15;;;;;;;49.08;36.22;;;;;;;14.61;100.00;101955.78;4856872;29;20127;-75
2023/05/08 07:18:41;;;;;;;48.67;36.75;;;;;;;14.60;100.00;101954.00;4853203;29;20057;-75
2023/05/08 07:21:07;;;;;;;48.38;35.53;;;;;;;14.62;100.00;101949.38;4856869;29;20025;-75
2023/05/08 07:23:32;;;;;;;48.08;36.17;;;;;;;14.64;100.00;101952.84;4860874;29;20055;-75
2023/05/08 07:25:58;;;;;;;47.00;36.38;;;;;;;14.68;100.00;101956.19;4860509;29;20508;-74
2023/05/08 07:28:23;;;;;;;47.80;35.42;;;;;;;14.68;100.00;101951.66;4857414;29;20048;-74
2023/05/08 07:30:56;;;;;;;46.53;35.20;;;;;;;14.71;100.00;101955.09;4856381;29;20022;-75
2023/05/08 07:33:22;;;;;;;47.15;33.47;;;;;;;14.74;100.00;101954.88;4855624;29;20056;-75
2023/05/08 07:35:47;;;;;;;44.70;33.42;;;;;;;14.75;100.00;101952.06;4860878;29;20588;-75
2023/05/08 07:38:12;;;;;;;47.30;31.92;;;;;;;14.78;100.00;101956.38;4861132;29;20093;-75
2023/05/08 07:40:38;;;;;;;44.35;32.40;;;;;;;14.85;100.00;101952.25;4851531;29;20085;-75
2023/05/08 07:43:03;;;;;;;40.45;29.90;;;;;;;14.88;100.00;101952.03;4859102;29;20481;-74
2023/05/08 07:45:28;;;;;;;43.63;31.00;;;;;;;14.93;100.00;101952.53;4856315;29;20057;-74
2023/05/08 07:47:56;;;;;;;43.28;32.40;;;;;;;15.01;100.00;101952.81;4856799;29;20080;-75
2023/05/08 07:50:22;;;;;;;43.33;31.10;;;;;;;15.05;100.00;101952.59;4851551;29;20109;-75
2023/05/08 07:52:48;;;;;;;38.85;29.40;;;;;;;15.10;100.00;101955.84;4860148;29;20025;-75
2023/05/08 07:55:14;;;;;;;42.25;32.30;;;;;;;15.14;100.00;101952.78;4852099;29;20078;-75
2023/05/08 07:57:41;;;;;;;40.97;29.30;;;;;;;15.21;100.00;101947.75;4860354;29;20398;-75
2023/05/08 08:00:08;;;;;;;41.42;30.30;;;;;;;15.26;100.00;101955.56;4858685;29;20102;-74
2023/05/08 08:02:33;;;;;;;45.70;32.58;;;;;;;15.29;100.00;101956.16;4860195;29;20033;-74
2023/05/08 08:04:59;;;;;;;43.97;30.77;;;;;;;15.38;100.00;101954.59;4859106;29;20056;-75
2023/05/08 08:07:24;;;;;;;42.03;31.38;;;;;;;15.44;100.00;101951.41;4851658;29;20461;-75
2023/05/08 08:09:50;;;;;;;44.30;32.38;;;;;;;15.48;100.00;101958.34;4860484;29;20120;-74
2023/05/08 08:12:15;;;;;;;42.05;30.88;;;;;;;15.53;100.00;101960.69;4860130;29;20029;-75
2023/05/08 08:14:40;;;;;;;38.60;27.05;;;;;;;15.58;100.00;101963.94;4861650;29;20482;-75
2023/05/08 08:17:06;;;;;;;39.33;28.83;;;;;;;15.60;100.00;101959.25;4857871;29;20822;-75
2023/05/08 08:19:31;;;;;;;37.00;28.30;;;;;;;15.61;100.00;101963.69;4852822;29;20026;-75
2023/05/08 08:21:56;;;;;;;41.95;28.42;;;;;;;15.66;100.00;101964.19;4856095;29;20029;-74
2023/05/08 08:24:22;;;;;;;41.97;29.13;;;;;;;15.67;100.00;101959.66;4853876;29;20766;-74
2023/05/08 08:26:47;;;;;;;41.20;30.02;;;;;;;15.73;100.00;101965.44;4856663;29;20025;-74
2023/05/08 08:29:13;;;;;;;38.05;28.25;;;;;;;15.75;100.00;101957.19;4850376;29;20344;-75
2023/05/08 08:31:38;;;;;;;38.88;27.85;;;;;;;15.74;100.00;101955.47;4855545;29;20029;-74
2023/05/08 08:34:03;;;;;;;38.42;27.10;;;;;;;15.78;100.00;101956.09;4853331;29;20040;-75
2023/05/08 08:36:29;;;;;;;35.97;26.85;;;;;;;15.82;100.00;101950.34;4858313;29;20037;-76
2023/05/08 08:38:54;;;;;;;35.95;27.55;;;;;;;15.90;100.00;101952.44;4857602;29;20041;-75
2023/05/08 08:41:20;;;;;;;38.25;26.98;;;;;;;15.93;100.00;101956.75;4856805;29;20033;-76
2023/05/08 08:43:46;;;;;;;37.78;26.98;;;;;;;15.97;100.00;101959.09;4854664;29;20499;-74
2023/05/08 08:46:13;;;;;;;37.22;27.38;;;;;;;16.02;100.00;101946.06;4847215;29;20052;-74
2023/05/08 08:48:43;;;;;;;45.55;31.20;;;;;;;16.11;100.00;101951.75;4854341;29;20254;-76
2023/05/08 08:51:22;;;;;;;43.83;31.45;;;;;;;16.17;100.00;101953.97;4856010;29;20560;-74
2023/05/08 08:53:51;;;;;;;37.70;28.83;;;;;;;16.23;100.00;101945.34;4857012;29;20482;-74
2023/05/08 08:56:21;;;;;;;44.45;31.63;;;;;;;16.27;100.00;101956.78;4857259;29;20037;-75
2023/05/08 08:58:53;;;;;;;45.58;31.40;;;;;;;16.30;100.00;101954.72;4853974;29;20443;-75
2023/05/08 09:01:20;;;;;;;40.53;30.80;;;;;;;16.32;100.00;101960.03;4851749;29;20129;-74
2023/05/08 09:03:46;;;;;;;41.20;31.05;;;;;;;16.32;100.00;101955.44;4858021;29;20105;-74
2023/05/08 09:06:12;;;;;;;43.25;31.67;;;;;;;16.33;100.00;101959.03;4856805;29;20124;-75
2023/05/08 09:08:40;;;;;;;44.35;33.50;;;;;;;16.33;100.00;101965.31;4858476;29;20136;-74
2023/05/08 09:11:05;;;;;;;44.17;32.85;;;;;;;16.31;100.00;101961.88;4857644;29;20033;-74
2023/05/08 09:13:31;;;;;;;44.38;34.30;;;;;;;16.32;100.00;101965.44;4854619;29;20033;-73
2023/05/08 09:15:57;;;;;;;45.55;34.30;;;;;;;16.36;100.00;101967.78;4855101;29;20405;-74
2023/05/08 09:18:23;;;;;;;42.15;33.22;;;;;;;16.37;100.00;101961.38;4849150;29;20097;-74
2023/05/08 09:20:49;;;;;;;49.60;34.10;;;;;;;16.42;100.00;101967.28;4853855;29;20037;-75
2023/05/08 09:23:16;;;;;;;45.67;34.92;;;;;;;16.46;100.00;101962.50;4856999;29;20061;-74
2023/05/08 09:25:46;;;;;;;43.88;34.88;;;;;;;16.53;100.00;101970.97;4850771;29;20458;-71
2023/05/08 09:28:22;;;;;;;44.17;33.55;;;;;;;16.57;100.00;101962.50;4849631;29;20111;-71
2023/05/08 09:30:55;;;;;;;48.75;35.70;;;;;;;16.60;100.00;101964.06;4849160;29;20037;-71
2023/05/08 09:33:22;;;;;;;49.08;37.80;;;;;;;16.57;100.00;101967.91;4862113;29;20044;-72
2023/05/08 09:35:47;;;;;;;48.90;37.22;;;;;;;16.55;100.00;101969.88;4859645;29;20706;-72
2023/05/08 09:38:32;;;;;;;46.60;36.70;;;;;;;16.52;100.00;101970.13;4857992;29;20045;-72
2023/05/08 09:41:08;;;;;;;51.85;38.05;;;;;;;16.52;100.00;101963.84;4861137;29;20048;-71
2023/05/08 09:43:33;;;;;;;51.53;40.25;;;;;;;16.56;100.00;101957.16;4859944;29;20025;-73
2023/05/08 09:46:17;;;;;;;53.97;40.53;;;;;;;16.62;100.00;101963.94;4858641;29;20018;-71
2023/05/08 09:48:44;;;;;;;49.63;37.58;;;;;;;16.62;100.00;101956.69;4859915;29;20094;-72
2023/05/08 09:51:10;;;;;;;53.33;37.95;;;;;;;16.66;100.00;101960.88;4859723;29;20060;-73
2023/05/08 09:53:35;;;;;;;53.38;39.83;;;;;;;16.68;100.00;101972.47;4861230;29;20045;-71
2023/05/08 09:56:00;;;;;;;56.60;40.13;;;;;;;16.69;100.00;101966.06;4857327;29;20033;-73
2023/05/08 09:58:37;;;;;;;52.63;36.00;;;;;;;16.70;100.00;101962.34;4857262;29;20485;-72
2023/05/08 10:01:03;;;;;;;49.33;38.13;;;;;;;16.70;100.00;101967.75;4857559;29;20526;-71
2023/05/08 10:03:48;;;;;;;50.63;37.40;;;;;;;16.72;100.00;101968.53;4857826;29;20195;-71
2023/05/08 10:06:14;;;;;;;50.50;36.30;;;;;;;16.71;100.00;101972.22;4857324;29;20044;-72
2023/05/08 10:08:40;;;;;;;54.78;38.90;;;;;;;16.73;100.00;101970.22;4854768;29;20025;-72
2023/05/08 10:11:14;;;;;;;54.10;39.22;;;;;;;16.80;100.00;101967.88;4860876;29;20025;-72
2023/05/08 10:13:39;;;;;;;53.90;39.00;;;;;;;16.83;100.00;101966.78;4858705;29;20109;-72
2023/05/08 10:16:06;;;;;;;54.97;40.55;;;;;;;16.86;100.00;101969.22;4857666;29;20033;-72
2023/05/08 10:18:34;;;;;;;56.72;40.53;;;;;;;16.91;100.00;101967.91;4854562;29;20041;-72
2023/05/08 10:21:05;;;;;;;56.60;42.38;;;;;;;16.99;100.00;101969.13;4856752;29;20051;-73
2023/05/08 10:23:33;;;;;;;54.92;41.97;;;;;;;17.02;100.00;101967.00;4860482;29;20097;-72
2023/05/08 10:26:06;;;;;;;53.75;41.58;;;;;;;17.07;100.00;101972.94;4859776;29;20037;-72
2023/05/08 10:28:43;;;;;;;55.90;42.72;;;;;;;17.11;100.00;101968.09;4860467;29;20089;-73
2023/05/08 10:31:16;;;;;;;52.25;38.78;;;;;;;17.15;100.00;101971.44;4856488;29;20033;-72
2023/05/08 10:33:43;;;;;;;50.38;38.50;;;;;;;17.10;100.00;101967.25;4852487;29;20501;-72
2023/05/08 10:36:09;;;;;;;52.15;39.22;;;;;;;17.04;100.00;101978.63;4860223;29;20030;-71
2023/05/08 10:38:36;;;;;;;53.55;40.42;;;;;;;17.02;100.00;101971.59;4860064;29;20068;-72
2023/05/08 10:41:02;;;;;;;52.67;40.20;;;;;;;16.97;100.00;101966.53;4859645;29;20021;-71
2023/05/08 10:43:29;;;;;;;55.25;39.08;;;;;;;16.95;100.00;101973.94;4858561;29;20037;-72
2023/05/08 10:45:57;;;;;;;60.72;41.05;;;;;;;16.92;100.00;101976.91;4860150;29;20367;-71
2023/05/08 10:48:31;;;;;;;57.97;43.38;;;;;;;16.89;100.00;101964.44;4860663;29;20453;-71
2023/05/08 10:51:20;;;;;;;61.08;43.30;;;;;;;16.88;100.00;101962.72;4858882;29;20053;-75
2023/05/08 10:53:52;;;;;;;60.95;43.60;;;;;;;16.88;100.00;101967.28;4851469;29;20490;-72
2023/05/08 10:56:17;;;;;;;58.42;43.38;;;;;;;16.97;100.00;101957.50;4852120;29;20466;-73
2023/05/08 10:58:42;;;;;;;59.95;43.65;;;;;;;17.04;100.00;101961.44;4860695;29;20044;-72
2023/05/08 11:01:07;;;;;;;57.88;43.42;;;;;;;17.06;100.00;101960.34;4858524;29;20038;-71
2023/05/08 11:03:41;;;;;;;58.20;43.33;;;;;;;17.08;100.00;101963.75;4858498;29;20048;-72
2023/05/08 11:06:06;;;;;;;57.30;42.40;;;;;;;17.14;100.00;101964.25;4858245;29;20034;-71
2023/05/08 11:08:31;;;;;;;54.47;41.33;;;;;;;17.20;100.00;101955.59;4857502;29;20418;-72